CheckWX is a tool to help pilots better visualize weather data.  It is not intended as a substitute for an official pre-flight weather briefing.

19:03:37 UTC

KOMK METAR
Omak Airport
Omak, Washington, USA
Current

11 mins ago

KOMK 201853Z AUTO 01015KT 10SM CLR 08/M04 A3022 RMK AO2 SLP242 T00781044
Observed
Nov-20 @ 18:53 UTC
Wind
  • 010° at 15 KTS
Visibility
10 SM
Flight Rules
VFR
Cloud Levels
  • Clear skies
Temperature
C / 46°F
Dewpoint
-4°C / 25°F
Humidity
43%
Altimeter
30.22" Hg
Pressure
1023.42 hPa
Previous

1 hour ago

KOMK 201753Z AUTO 36016KT 10SM CLR 06/M04 A3024 RMK AO2 SLP247 T00611044 10061 20033 50018
Observed
Nov-20 @ 17:53 UTC
Wind
  • 360° at 16 KTS
Visibility
10 SM
Flight Rules
VFR
Cloud Levels
  • Clear skies
Temperature
C / 43°F
Dewpoint
-4°C / 25°F
Humidity
49%
Altimeter
30.24" Hg
Pressure
1024.02 hPa
Previous

2 hours ago

KOMK 201653Z AUTO 33009KT 290V360 10SM CLR 05/M04 A3024 RMK AO2 SLP248 T00501044
Observed
Nov-20 @ 16:53 UTC
Wind
  • 330° at 9 KTS
Visibility
10 SM
Flight Rules
VFR
Cloud Levels
  • Clear skies
Temperature
C / 41°F
Dewpoint
-4°C / 25°F
Humidity
53%
Altimeter
30.24" Hg
Pressure
1024.02 hPa